sensor_id;sensor_type;location;lat;lon;timestamp;temperature;humidity
40622;DHT22;26324;52.040;11.528;2022-08-19T00:00:19;20.90;86.90
40622;DHT22;26324;52.040;11.528;2022-08-19T00:02:45;20.80;87.00
40622;DHT22;26324;52.040;11.528;2022-08-19T00:05:13;20.80;87.10
40622;DHT22;26324;52.040;11.528;2022-08-19T00:07:41;20.80;87.30
40622;DHT22;26324;52.040;11.528;2022-08-19T00:10:09;20.80;87.50
40622;DHT22;26324;52.040;11.528;2022-08-19T00:12:34;20.80;87.60
40622;DHT22;26324;52.040;11.528;2022-08-19T00:15:06;20.80;87.70
40622;DHT22;26324;52.040;11.528;2022-08-19T00:17:33;20.70;87.80
40622;DHT22;26324;52.040;11.528;2022-08-19T00:19:59;20.80;87.70
40622;DHT22;26324;52.040;11.528;2022-08-19T00:22:24;20.80;87.70
40622;DHT22;26324;52.040;11.528;2022-08-19T00:24:52;20.80;88.00
40622;DHT22;26324;52.040;11.528;2022-08-19T00:27:17;20.70;88.10
40622;DHT22;26324;52.040;11.528;2022-08-19T00:29:43;20.70;88.10
40622;DHT22;26324;52.040;11.528;2022-08-19T00:32:08;20.70;88.10
40622;DHT22;26324;52.040;11.528;2022-08-19T00:34:35;20.70;88.10
40622;DHT22;26324;52.040;11.528;2022-08-19T00:37:00;20.70;88.20
40622;DHT22;26324;52.040;11.528;2022-08-19T00:39:26;20.70;88.20
40622;DHT22;26324;52.040;11.528;2022-08-19T00:41:51;20.70;88.20
40622;DHT22;26324;52.040;11.528;2022-08-19T00:44:24;20.70;88.30
40622;DHT22;26324;52.040;11.528;2022-08-19T00:46:51;20.60;88.50
40622;DHT22;26324;52.040;11.528;2022-08-19T00:49:23;20.60;88.60
40622;DHT22;26324;52.040;11.528;2022-08-19T00:51:53;20.60;88.90
40622;DHT22;26324;52.040;11.528;2022-08-19T00:54:21;20.60;88.90
40622;DHT22;26324;52.040;11.528;2022-08-19T00:56:47;20.50;88.90
40622;DHT22;26324;52.040;11.528;2022-08-19T00:59:14;20.50;89.00
40622;DHT22;26324;52.040;11.528;2022-08-19T01:01:41;20.50;89.10
40622;DHT22;26324;52.040;11.528;2022-08-19T01:04:08;20.50;89.10
40622;DHT22;26324;52.040;11.528;2022-08-19T01:06:36;20.50;89.10
40622;DHT22;26324;52.040;11.528;2022-08-19T01:09:02;20.40;89.20
40622;DHT22;26324;52.040;11.528;2022-08-19T01:11:30;20.50;89.20
40622;DHT22;26324;52.040;11.528;2022-08-19T01:13:57;20.50;89.20
40622;DHT22;26324;52.040;11.528;2022-08-19T01:16:25;20.50;89.20
40622;DHT22;26324;52.040;11.528;2022-08-19T01:18:52;20.50;89.20
40622;DHT22;26324;52.040;11.528;2022-08-19T01:21:38;20.50;89.10
40622;DHT22;26324;52.040;11.528;2022-08-19T01:24:05;20.50;89.00
40622;DHT22;26324;52.040;11.528;2022-08-19T01:26:30;20.50;89.00
40622;DHT22;26324;52.040;11.528;2022-08-19T01:28:57;20.50;88.90
40622;DHT22;26324;52.040;11.528;2022-08-19T01:31:26;20.50;88.80
40622;DHT22;26324;52.040;11.528;2022-08-19T01:33:54;20.50;88.80
40622;DHT22;26324;52.040;11.528;2022-08-19T01:36:39;20.50;89.00
40622;DHT22;26324;52.040;11.528;2022-08-19T01:39:10;20.50;88.60
40622;DHT22;26324;52.040;11.528;2022-08-19T01:41:36;20.50;88.70
40622;DHT22;26324;52.040;11.528;2022-08-19T01:44:05;20.50;88.50
40622;DHT22;26324;52.040;11.528;2022-08-19T01:46:31;20.60;88.50
40622;DHT22;26324;52.040;11.528;2022-08-19T01:48:58;20.50;88.50
40622;DHT22;26324;52.040;11.528;2022-08-19T01:51:23;20.50;88.60
40622;DHT22;26324;52.040;11.528;2022-08-19T01:53:49;20.40;88.50
40622;DHT22;26324;52.040;11.528;2022-08-19T01:56:16;20.30;88.80
40622;DHT22;26324;52.040;11.528;2022-08-19T01:58:47;20.40;88.80
40622;DHT22;26324;52.040;11.528;2022-08-19T02:01:14;20.40;88.70
40622;DHT22;26324;52.040;11.528;2022-08-19T02:03:40;20.30;88.90
40622;DHT22;26324;52.040;11.528;2022-08-19T02:06:06;20.10;89.30
40622;DHT22;26324;52.040;11.528;2022-08-19T02:08:33;20.10;89.40
40622;DHT22;26324;52.040;11.528;2022-08-19T02:10:59;20.10;89.60
40622;DHT22;26324;52.040;11.528;2022-08-19T02:13:26;20.00;89.70
40622;DHT22;26324;52.040;11.528;2022-08-19T02:15:51;20.00;89.90
40622;DHT22;26324;52.040;11.528;2022-08-19T02:18:17;20.00;90.00
40622;DHT22;26324;52.040;11.528;2022-08-19T02:20:43;20.00;90.10
40622;DHT22;26324;52.040;11.528;2022-08-19T02:23:11;20.00;90.10
40622;DHT22;26324;52.040;11.528;2022-08-19T02:25:37;20.00;90.10
40622;DHT22;26324;52.040;11.528;2022-08-19T02:28:03;20.00;90.10
40622;DHT22;26324;52.040;11.528;2022-08-19T02:30:30;20.00;90.30
40622;DHT22;26324;52.040;11.528;2022-08-19T02:32:55;20.10;90.10
40622;DHT22;26324;52.040;11.528;2022-08-19T02:35:21;20.10;89.80
40622;DHT22;26324;52.040;11.528;2022-08-19T02:37:47;20.10;89.60
40622;DHT22;26324;52.040;11.528;2022-08-19T02:40:32;20.10;89.80
40622;DHT22;26324;52.040;11.528;2022-08-19T02:43:02;20.10;89.40
40622;DHT22;26324;52.040;11.528;2022-08-19T02:45:33;20.30;89.20
40622;DHT22;26324;52.040;11.528;2022-08-19T02:47:58;20.30;88.80
40622;DHT22;26324;52.040;11.528;2022-08-19T02:50:24;20.30;88.60
40622;DHT22;26324;52.040;11.528;2022-08-19T02:52:49;20.30;88.60
40622;DHT22;26324;52.040;11.528;2022-08-19T02:55:15;20.30;88.50
40622;DHT22;26324;52.040;11.528;2022-08-19T02:57:40;20.30;88.60
40622;DHT22;26324;52.040;11.528;2022-08-19T03:00:08;20.30;88.80
40622;DHT22;26324;52.040;11.528;2022-08-19T03:02:37;20.20;88.90
40622;DHT22;26324;52.040;11.528;2022-08-19T03:05:04;20.30;88.90
40622;DHT22;26324;52.040;11.528;2022-08-19T03:07:29;20.20;88.90
40622;DHT22;26324;52.040;11.528;2022-08-19T03:09:55;20.10;88.90
40622;DHT22;26324;52.040;11.528;2022-08-19T03:12:21;20.10;89.10
40622;DHT22;26324;52.040;11.528;2022-08-19T03:14:46;20.00;89.20
40622;DHT22;26324;52.040;11.528;2022-08-19T03:17:12;20.00;89.30
40622;DHT22;26324;52.040;11.528;2022-08-19T03:19:38;20.10;89.30
40622;DHT22;26324;52.040;11.528;2022-08-19T03:22:03;20.00;89.30
40622;DHT22;26324;52.040;11.528;2022-08-19T03:24:30;20.00;89.40
40622;DHT22;26324;52.040;11.528;2022-08-19T03:26:57;20.00;89.40
40622;DHT22;26324;52.040;11.528;2022-08-19T03:29:25;19.90;89.50
40622;DHT22;26324;52.040;11.528;2022-08-19T03:31:51;19.90;89.70
40622;DHT22;26324;52.040;11.528;2022-08-19T03:34:25;19.80;89.70
40622;DHT22;26324;52.040;11.528;2022-08-19T03:36:52;19.80;89.70
40622;DHT22;26324;52.040;11.528;2022-08-19T03:39:20;19.80;89.70
40622;DHT22;26324;52.040;11.528;2022-08-19T03:41:47;19.70;89.80
40622;DHT22;26324;52.040;11.528;2022-08-19T03:44:17;19.70;89.90
40622;DHT22;26324;52.040;11.528;2022-08-19T03:46:47;19.70;89.90
40622;DHT22;26324;52.040;11.528;2022-08-19T03:49:13;19.60;89.90
40622;DHT22;26324;52.040;11.528;2022-08-19T03:51:40;19.60;89.80
40622;DHT22;26324;52.040;11.528;2022-08-19T03:54:08;19.60;89.90
40622;DHT22;26324;52.040;11.528;2022-08-19T03:56:36;19.50;89.80
40622;DHT22;26324;52.040;11.528;2022-08-19T03:59:04;19.60;89.80
40622;DHT22;26324;52.040;11.528;2022-08-19T04:01:30;19.50;89.70
40622;DHT22;26324;52.040;11.528;2022-08-19T04:03:57;19.50;89.50
40622;DHT22;26324;52.040;11.528;2022-08-19T04:06:34;19.50;89.50
40622;DHT22;26324;52.040;11.528;2022-08-19T04:09:03;19.50;89.40
40622;DHT22;26324;52.040;11.528;2022-08-19T04:11:33;19.50;89.40
40622;DHT22;26324;52.040;11.528;2022-08-19T04:13:59;19.50;89.40
40622;DHT22;26324;52.040;11.528;2022-08-19T04:16:27;19.50;89.40
40622;DHT22;26324;52.040;11.528;2022-08-19T04:18:55;19.50;89.40
40622;DHT22;26324;52.040;11.528;2022-08-19T04:21:24;19.50;89.50
40622;DHT22;26324;52.040;11.528;2022-08-19T04:23:51;19.50;89.40
40622;DHT22;26324;52.040;11.528;2022-08-19T04:26:22;19.50;89.20
40622;DHT22;26324;52.040;11.528;2022-08-19T04:28:49;19.50;89.30
40622;DHT22;26324;52.040;11.528;2022-08-19T04:31:19;19.50;89.00
40622;DHT22;26324;52.040;11.528;2022-08-19T04:33:45;19.50;88.90
40622;DHT22;26324;52.040;11.528;2022-08-19T04:36:19;19.60;88.80
40622;DHT22;26324;52.040;11.528;2022-08-19T04:38:46;19.60;88.50
40622;DHT22;26324;52.040;11.528;2022-08-19T04:41:12;19.60;88.50
40622;DHT22;26324;52.040;11.528;2022-08-19T04:43:56;19.60;88.20
40622;DHT22;26324;52.040;11.528;2022-08-19T04:46:22;19.60;88.20
40622;DHT22;26324;52.040;11.528;2022-08-19T04:48:47;19.60;88.10
40622;DHT22;26324;52.040;11.528;2022-08-19T04:51:13;19.60;88.30
40622;DHT22;26324;52.040;11.528;2022-08-19T04:53:40;19.60;88.20
40622;DHT22;26324;52.040;11.528;2022-08-19T04:56:13;19.60;88.20
40622;DHT22;26324;52.040;11.528;2022-08-19T04:58:41;19.60;88.10
40622;DHT22;26324;52.040;11.528;2022-08-19T05:01:09;19.60;88.10
40622;DHT22;26324;52.040;11.528;2022-08-19T05:03:36;19.60;88.00
40622;DHT22;26324;52.040;11.528;2022-08-19T05:06:10;19.60;88.00
40622;DHT22;26324;52.040;11.528;2022-08-19T05:08:37;19.60;88.00
40622;DHT22;26324;52.040;11.528;2022-08-19T05:11:12;19.60;88.10
40622;DHT22;26324;52.040;11.528;2022-08-19T05:13:38;19.60;88.10
40622;DHT22;26324;52.040;11.528;2022-08-19T05:16:03;19.60;88.20
40622;DHT22;26324;52.040;11.528;2022-08-19T05:18:29;19.60;88.20
40622;DHT22;26324;52.040;11.528;2022-08-19T05:21:15;19.60;88.20
40622;DHT22;26324;52.040;11.528;2022-08-19T05:24:00;19.60;88.30
40622;DHT22;26324;52.040;11.528;2022-08-19T05:26:26;19.60;88.30
40622;DHT22;26324;52.040;11.528;2022-08-19T05:28:53;19.70;88.30
40622;DHT22;26324;52.040;11.528;2022-08-19T05:31:19;19.60;88.20
40622;DHT22;26324;52.040;11.528;2022-08-19T05:33:45;19.70;88.10
40622;DHT22;26324;52.040;11.528;2022-08-19T05:36:10;19.70;87.90
40622;DHT22;26324;52.040;11.528;2022-08-19T05:38:36;19.70;88.00
40622;DHT22;26324;52.040;11.528;2022-08-19T05:41:13;19.70;87.90
40622;DHT22;26324;52.040;11.528;2022-08-19T05:43:40;19.70;87.50
40622;DHT22;26324;52.040;11.528;2022-08-19T05:46:07;19.70;87.70
40622;DHT22;26324;52.040;11.528;2022-08-19T05:48:35;19.70;87.60
40622;DHT22;26324;52.040;11.528;2022-08-19T05:51:08;19.70;87.60
40622;DHT22;26324;52.040;11.528;2022-08-19T05:53:34;19.70;87.50
40622;DHT22;26324;52.040;11.528;2022-08-19T05:56:09;19.80;87.30
40622;DHT22;26324;52.040;11.528;2022-08-19T05:58:36;19.80;87.10
40622;DHT22;26324;52.040;11.528;2022-08-19T06:01:04;19.70;87.10
40622;DHT22;26324;52.040;11.528;2022-08-19T06:03:32;19.80;86.90
40622;DHT22;26324;52.040;11.528;2022-08-19T06:05:59;19.80;86.70
40622;DHT22;26324;52.040;11.528;2022-08-19T06:08:26;19.80;86.50
40622;DHT22;26324;52.040;11.528;2022-08-19T06:10:52;19.70;86.50
40622;DHT22;26324;52.040;11.528;2022-08-19T06:13:17;19.70;86.30
40622;DHT22;26324;52.040;11.528;2022-08-19T06:15:45;19.60;86.60
40622;DHT22;26324;52.040;11.528;2022-08-19T06:18:13;19.60;86.50
40622;DHT22;26324;52.040;11.528;2022-08-19T06:20:39;19.60;86.60
40622;DHT22;26324;52.040;11.528;2022-08-19T06:23:05;19.60;86.70
40622;DHT22;26324;52.040;11.528;2022-08-19T06:25:31;19.60;86.80
40622;DHT22;26324;52.040;11.528;2022-08-19T06:27:56;19.60;87.00
40622;DHT22;26324;52.040;11.528;2022-08-19T06:30:23;19.60;86.70
40622;DHT22;26324;52.040;11.528;2022-08-19T06:32:49;19.60;87.00
40622;DHT22;26324;52.040;11.528;2022-08-19T06:35:16;19.60;86.60
40622;DHT22;26324;52.040;11.528;2022-08-19T06:37:42;19.60;86.50
40622;DHT22;26324;52.040;11.528;2022-08-19T06:40:08;19.60;86.40
40622;DHT22;26324;52.040;11.528;2022-08-19T06:42:38;19.60;86.50
40622;DHT22;26324;52.040;11.528;2022-08-19T06:45:05;19.70;86.60
40622;DHT22;26324;52.040;11.528;2022-08-19T06:47:33;19.70;86.50
40622;DHT22;26324;52.040;11.528;2022-08-19T06:49:59;19.80;86.30
40622;DHT22;26324;52.040;11.528;2022-08-19T06:52:30;19.80;86.30
40622;DHT22;26324;52.040;11.528;2022-08-19T06:54:56;19.90;86.00
40622;DHT22;26324;52.040;11.528;2022-08-19T06:57:23;19.90;85.80
40622;DHT22;26324;52.040;11.528;2022-08-19T06:59:49;19.90;85.20
40622;DHT22;26324;52.040;11.528;2022-08-19T07:02:14;19.90;85.40
40622;DHT22;26324;52.040;11.528;2022-08-19T07:04:40;19.80;85.40
40622;DHT22;26324;52.040;11.528;2022-08-19T07:07:09;19.80;85.40
40622;DHT22;26324;52.040;11.528;2022-08-19T07:09:39;19.90;85.20
40622;DHT22;26324;52.040;11.528;2022-08-19T07:12:08;19.90;85.30
40622;DHT22;26324;52.040;11.528;2022-08-19T07:14:35;19.80;85.20
40622;DHT22;26324;52.040;11.528;2022-08-19T07:17:04;19.80;85.40
40622;DHT22;26324;52.040;11.528;2022-08-19T07:19:31;19.70;85.60
40622;DHT22;26324;52.040;11.528;2022-08-19T07:21:58;19.60;85.50
40622;DHT22;26324;52.040;11.528;2022-08-19T07:24:27;19.60;85.60
40622;DHT22;26324;52.040;11.528;2022-08-19T07:26:55;19.60;85.90
40622;DHT22;26324;52.040;11.528;2022-08-19T07:29:23;19.60;85.90
40622;DHT22;26324;52.040;11.528;2022-08-19T07:31:50;19.60;85.70
40622;DHT22;26324;52.040;11.528;2022-08-19T07:34:17;19.60;85.50
40622;DHT22;26324;52.040;11.528;2022-08-19T07:36:43;19.60;85.50
40622;DHT22;26324;52.040;11.528;2022-08-19T07:39:37;19.70;85.50
40622;DHT22;26324;52.040;11.528;2022-08-19T07:42:07;19.80;85.30
40622;DHT22;26324;52.040;11.528;2022-08-19T07:44:34;19.80;84.70
40622;DHT22;26324;52.040;11.528;2022-08-19T07:47:01;19.80;85.20
40622;DHT22;26324;52.040;11.528;2022-08-19T07:49:28;19.90;84.70
40622;DHT22;26324;52.040;11.528;2022-08-19T07:52:00;19.90;84.80
40622;DHT22;26324;52.040;11.528;2022-08-19T07:54:28;19.90;85.20
40622;DHT22;26324;52.040;11.528;2022-08-19T07:56:55;19.90;84.70
40622;DHT22;26324;52.040;11.528;2022-08-19T07:59:22;20.00;84.50
40622;DHT22;26324;52.040;11.528;2022-08-19T08:01:49;20.00;84.40
40622;DHT22;26324;52.040;11.528;2022-08-19T08:04:16;20.10;84.00
40622;DHT22;26324;52.040;11.528;2022-08-19T08:07:00;20.20;83.40
40622;DHT22;26324;52.040;11.528;2022-08-19T08:09:45;20.20;83.50
40622;DHT22;26324;52.040;11.528;2022-08-19T08:12:21;20.10;84.00
40622;DHT22;26324;52.040;11.528;2022-08-19T08:14:51;20.00;83.70
40622;DHT22;26324;52.040;11.528;2022-08-19T08:17:20;20.00;84.20
40622;DHT22;26324;52.040;11.528;2022-08-19T08:19:47;19.90;84.10
40622;DHT22;26324;52.040;11.528;2022-08-19T08:22:18;20.00;84.60
40622;DHT22;26324;52.040;11.528;2022-08-19T08:25:05;20.00;84.10
40622;DHT22;26324;52.040;11.528;2022-08-19T08:27:35;20.00;84.10
40622;DHT22;26324;52.040;11.528;2022-08-19T08:30:02;20.10;83.50
40622;DHT22;26324;52.040;11.528;2022-08-19T08:32:28;20.20;83.20
40622;DHT22;26324;52.040;11.528;2022-08-19T08:34:53;20.20;83.10
40622;DHT22;26324;52.040;11.528;2022-08-19T08:37:19;20.10;82.90
40622;DHT22;26324;52.040;11.528;2022-08-19T08:39:44;20.10;82.90
40622;DHT22;26324;52.040;11.528;2022-08-19T08:42:24;20.00;83.30
40622;DHT22;26324;52.040;11.528;2022-08-19T08:45:03;20.00;83.60
40622;DHT22;26324;52.040;11.528;2022-08-19T08:47:35;19.90;83.60
40622;DHT22;26324;52.040;11.528;2022-08-19T08:50:16;19.70;84.40
40622;DHT22;26324;52.040;11.528;2022-08-19T08:52:46;19.60;84.60
40622;DHT22;26324;52.040;11.528;2022-08-19T08:55:16;19.50;84.80
40622;DHT22;26324;52.040;11.528;2022-08-19T08:57:53;19.50;85.10
40622;DHT22;26324;52.040;11.528;2022-08-19T09:00:27;19.50;85.10
40622;DHT22;26324;52.040;11.528;2022-08-19T09:02:56;19.50;85.20
40622;DHT22;26324;52.040;11.528;2022-08-19T09:05:25;19.50;85.20
40622;DHT22;26324;52.040;11.528;2022-08-19T09:08:06;19.50;85.20
40622;DHT22;26324;52.040;11.528;2022-08-19T09:11:00;19.40;85.30
40622;DHT22;26324;52.040;11.528;2022-08-19T09:14:07;19.30;85.10
40622;DHT22;26324;52.040;11.528;2022-08-19T09:16:34;19.40;85.50
40622;DHT22;26324;52.040;11.528;2022-08-19T09:19:04;19.40;85.50
40622;DHT22;26324;52.040;11.528;2022-08-19T09:21:30;19.30;85.30
40622;DHT22;26324;52.040;11.528;2022-08-19T09:23:56;19.30;85.10
40622;DHT22;26324;52.040;11.528;2022-08-19T09:26:26;19.50;85.30
40622;DHT22;26324;52.040;11.528;2022-08-19T09:28:53;19.50;84.70
40622;DHT22;26324;52.040;11.528;2022-08-19T09:31:22;19.50;84.80
40622;DHT22;26324;52.040;11.528;2022-08-19T09:33:49;19.50;84.40
40622;DHT22;26324;52.040;11.528;2022-08-19T09:36:19;19.70;84.20
40622;DHT22;26324;52.040;11.528;2022-08-19T09:38:45;19.70;83.70
40622;DHT22;26324;52.040;11.528;2022-08-19T09:41:16;19.60;83.60
40622;DHT22;26324;52.040;11.528;2022-08-19T09:43:44;19.50;83.40
40622;DHT22;26324;52.040;11.528;2022-08-19T09:46:11;19.50;84.00
40622;DHT22;26324;52.040;11.528;2022-08-19T09:48:38;19.50;83.90
40622;DHT22;26324;52.040;11.528;2022-08-19T09:51:08;19.50;84.10
40622;DHT22;26324;52.040;11.528;2022-08-19T09:53:37;19.60;83.90
40622;DHT22;26324;52.040;11.528;2022-08-19T09:56:05;19.60;83.60
40622;DHT22;26324;52.040;11.528;2022-08-19T09:58:32;19.70;83.80
40622;DHT22;26324;52.040;11.528;2022-08-19T10:01:00;19.60;83.60
40622;DHT22;26324;52.040;11.528;2022-08-19T10:03:28;19.60;83.60
40622;DHT22;26324;52.040;11.528;2022-08-19T10:05:55;19.60;84.00
40622;DHT22;26324;52.040;11.528;2022-08-19T10:08:27;19.60;83.70
40622;DHT22;26324;52.040;11.528;2022-08-19T10:10:53;19.70;83.20
40622;DHT22;26324;52.040;11.528;2022-08-19T10:13:23;19.80;82.70
40622;DHT22;26324;52.040;11.528;2022-08-19T10:15:52;19.90;82.80
40622;DHT22;26324;52.040;11.528;2022-08-19T10:18:20;20.10;82.00
40622;DHT22;26324;52.040;11.528;2022-08-19T10:20:48;20.40;82.00
40622;DHT22;26324;52.040;11.528;2022-08-19T10:23:16;20.70;80.90
40622;DHT22;26324;52.040;11.528;2022-08-19T10:25:43;20.90;80.60
40622;DHT22;26324;52.040;11.528;2022-08-19T10:28:09;20.80;80.40
40622;DHT22;26324;52.040;11.528;2022-08-19T10:30:38;21.00;80.00
40622;DHT22;26324;52.040;11.528;2022-08-19T10:33:05;20.80;79.50
40622;DHT22;26324;52.040;11.528;2022-08-19T10:35:32;21.00;79.40
40622;DHT22;26324;52.040;11.528;2022-08-19T10:37:58;21.30;78.20
40622;DHT22;26324;52.040;11.528;2022-08-19T10:40:28;21.50;77.20
40622;DHT22;26324;52.040;11.528;2022-08-19T10:42:54;21.30;77.10
40622;DHT22;26324;52.040;11.528;2022-08-19T10:45:22;21.60;76.90
40622;DHT22;26324;52.040;11.528;2022-08-19T10:47:52;21.60;76.40
40622;DHT22;26324;52.040;11.528;2022-08-19T10:50:18;21.60;76.30
40622;DHT22;26324;52.040;11.528;2022-08-19T10:53:05;21.80;76.60
40622;DHT22;26324;52.040;11.528;2022-08-19T10:55:33;21.90;77.00
40622;DHT22;26324;52.040;11.528;2022-08-19T10:58:19;21.90;76.00
40622;DHT22;26324;52.040;11.528;2022-08-19T11:00:53;21.70;76.30
40622;DHT22;26324;52.040;11.528;2022-08-19T11:03:19;21.80;76.30
40622;DHT22;26324;52.040;11.528;2022-08-19T11:05:45;22.00;75.90
40622;DHT22;26324;52.040;11.528;2022-08-19T11:08:11;21.90;75.20
40622;DHT22;26324;52.040;11.528;2022-08-19T11:10:42;21.70;76.00
40622;DHT22;26324;52.040;11.528;2022-08-19T11:13:08;22.00;75.40
40622;DHT22;26324;52.040;11.528;2022-08-19T11:15:34;21.90;75.00
40622;DHT22;26324;52.040;11.528;2022-08-19T11:18:00;22.00;75.80
40622;DHT22;26324;52.040;11.528;2022-08-19T11:20:26;22.10;74.90
40622;DHT22;26324;52.040;11.528;2022-08-19T11:22:52;22.00;74.30
40622;DHT22;26324;52.040;11.528;2022-08-19T11:25:19;21.80;74.60
40622;DHT22;26324;52.040;11.528;2022-08-19T11:27:45;21.70;75.30
40622;DHT22;26324;52.040;11.528;2022-08-19T11:30:12;21.70;75.60
40622;DHT22;26324;52.040;11.528;2022-08-19T11:32:39;21.80;75.10
40622;DHT22;26324;52.040;11.528;2022-08-19T11:35:05;21.80;74.90
40622;DHT22;26324;52.040;11.528;2022-08-19T11:37:31;22.00;74.30
40622;DHT22;26324;52.040;11.528;2022-08-19T11:40:04;22.10;74.50
40622;DHT22;26324;52.040;11.528;2022-08-19T11:42:30;22.30;73.30
40622;DHT22;26324;52.040;11.528;2022-08-19T11:45:14;22.50;73.60
40622;DHT22;26324;52.040;11.528;2022-08-19T11:47:39;22.70;73.30
40622;DHT22;26324;52.040;11.528;2022-08-19T11:50:05;23.10;71.60
40622;DHT22;26324;52.040;11.528;2022-08-19T11:52:31;23.00;71.20
40622;DHT22;26324;52.040;11.528;2022-08-19T11:54:57;22.80;71.00
40622;DHT22;26324;52.040;11.528;2022-08-19T11:57:22;22.90;70.90
40622;DHT22;26324;52.040;11.528;2022-08-19T11:59:50;23.00;71.90
40622;DHT22;26324;52.040;11.528;2022-08-19T12:02:16;23.00;70.80
40622;DHT22;26324;52.040;11.528;2022-08-19T12:04:42;23.20;70.80
40622;DHT22;26324;52.040;11.528;2022-08-19T12:07:08;23.60;69.60
40622;DHT22;26324;52.040;11.528;2022-08-19T12:09:33;23.60;68.60
40622;DHT22;26324;52.040;11.528;2022-08-19T12:12:00;23.30;69.80
40622;DHT22;26324;52.040;11.528;2022-08-19T12:14:27;23.50;68.90
40622;DHT22;26324;52.040;11.528;2022-08-19T12:16:55;23.40;69.70
40622;DHT22;26324;52.040;11.528;2022-08-19T12:19:22;23.50;68.00
40622;DHT22;26324;52.040;11.528;2022-08-19T12:21:51;23.40;69.80
40622;DHT22;26324;52.040;11.528;2022-08-19T12:24:21;23.50;67.60
40622;DHT22;26324;52.040;11.528;2022-08-19T12:26:48;23.40;69.30
40622;DHT22;26324;52.040;11.528;2022-08-19T12:29:15;23.50;68.20
40622;DHT22;26324;52.040;11.528;2022-08-19T12:31:41;23.50;68.60
40622;DHT22;26324;52.040;11.528;2022-08-19T12:34:07;23.60;67.90
40622;DHT22;26324;52.040;11.528;2022-08-19T12:36:33;23.60;68.40
40622;DHT22;26324;52.040;11.528;2022-08-19T12:38:59;23.70;68.20
40622;DHT22;26324;52.040;11.528;2022-08-19T12:41:26;23.90;67.90
40622;DHT22;26324;52.040;11.528;2022-08-19T12:43:52;24.00;67.60
40622;DHT22;26324;52.040;11.528;2022-08-19T12:46:19;24.20;67.10
40622;DHT22;26324;52.040;11.528;2022-08-19T12:48:45;24.40;66.70
40622;DHT22;26324;52.040;11.528;2022-08-19T12:51:16;24.50;65.30
40622;DHT22;26324;52.040;11.528;2022-08-19T12:53:43;24.30;65.00
40622;DHT22;26324;52.040;11.528;2022-08-19T12:56:10;24.00;66.00
40622;DHT22;26324;52.040;11.528;2022-08-19T12:58:36;23.60;67.90
40622;DHT22;26324;52.040;11.528;2022-08-19T13:01:13;23.90;67.60
40622;DHT22;26324;52.040;11.528;2022-08-19T13:03:40;24.00;68.10
40622;DHT22;26324;52.040;11.528;2022-08-19T13:06:06;24.50;66.30
40622;DHT22;26324;52.040;11.528;2022-08-19T13:08:31;24.50;65.20
40622;DHT22;26324;52.040;11.528;2022-08-19T13:10:57;24.60;64.80
40622;DHT22;26324;52.040;11.528;2022-08-19T13:13:24;24.80;64.90
40622;DHT22;26324;52.040;11.528;2022-08-19T13:15:51;25.00;64.40
40622;DHT22;26324;52.040;11.528;2022-08-19T13:18:16;25.20;63.40
40622;DHT22;26324;52.040;11.528;2022-08-19T13:20:42;25.30;62.30
40622;DHT22;26324;52.040;11.528;2022-08-19T13:23:08;25.20;63.30
40622;DHT22;26324;52.040;11.528;2022-08-19T13:25:34;25.30;63.50
40622;DHT22;26324;52.040;11.528;2022-08-19T13:28:01;25.60;61.60
40622;DHT22;26324;52.040;11.528;2022-08-19T13:30:27;25.80;60.90
40622;DHT22;26324;52.040;11.528;2022-08-19T13:33:11;25.90;61.30
40622;DHT22;26324;52.040;11.528;2022-08-19T13:35:46;25.90;61.10
40622;DHT22;26324;52.040;11.528;2022-08-19T13:38:13;25.90;60.40
40622;DHT22;26324;52.040;11.528;2022-08-19T13:40:39;25.90;60.60
40622;DHT22;26324;52.040;11.528;2022-08-19T13:43:06;25.70;61.60
40622;DHT22;26324;52.040;11.528;2022-08-19T13:45:33;25.60;61.00
40622;DHT22;26324;52.040;11.528;2022-08-19T13:48:00;25.30;61.10
40622;DHT22;26324;52.040;11.528;2022-08-19T13:50:28;25.40;61.80
40622;DHT22;26324;52.040;11.528;2022-08-19T13:52:56;25.50;62.00
40622;DHT22;26324;52.040;11.528;2022-08-19T13:55:23;25.80;60.80
40622;DHT22;26324;52.040;11.528;2022-08-19T13:57:54;26.00;60.00
40622;DHT22;26324;52.040;11.528;2022-08-19T14:00:21;26.20;58.90
40622;DHT22;26324;52.040;11.528;2022-08-19T14:02:50;26.40;58.90
40622;DHT22;26324;52.040;11.528;2022-08-19T14:05:17;27.10;56.70
40622;DHT22;26324;52.040;11.528;2022-08-19T14:07:43;28.00;54.50
40622;DHT22;26324;52.040;11.528;2022-08-19T14:10:10;28.40;52.20
40622;DHT22;26324;52.040;11.528;2022-08-19T14:12:43;28.30;51.30
40622;DHT22;26324;52.040;11.528;2022-08-19T14:15:11;27.70;53.40
40622;DHT22;26324;52.040;11.528;2022-08-19T14:17:39;26.90;55.20
40622;DHT22;26324;52.040;11.528;2022-08-19T14:20:07;26.10;57.40
40622;DHT22;26324;52.040;11.528;2022-08-19T14:22:36;25.70;59.20
40622;DHT22;26324;52.040;11.528;2022-08-19T14:25:03;25.50;60.00
40622;DHT22;26324;52.040;11.528;2022-08-19T14:27:29;25.30;60.70
40622;DHT22;26324;52.040;11.528;2022-08-19T14:29:55;25.00;61.60
40622;DHT22;26324;52.040;11.528;2022-08-19T14:32:20;24.70;62.20
40622;DHT22;26324;52.040;11.528;2022-08-19T14:34:47;24.60;63.10
40622;DHT22;26324;52.040;11.528;2022-08-19T14:37:13;24.50;63.20
40622;DHT22;26324;52.040;11.528;2022-08-19T14:39:42;24.30;63.80
40622;DHT22;26324;52.040;11.528;2022-08-19T14:42:09;24.20;64.10
40622;DHT22;26324;52.040;11.528;2022-08-19T14:44:35;24.10;64.50
40622;DHT22;26324;52.040;11.528;2022-08-19T14:47:00;24.10;64.50
40622;DHT22;26324;52.040;11.528;2022-08-19T14:49:26;24.00;65.30
40622;DHT22;26324;52.040;11.528;2022-08-19T14:51:52;24.00;65.40
40622;DHT22;26324;52.040;11.528;2022-08-19T14:54:18;24.10;65.30
40622;DHT22;26324;52.040;11.528;2022-08-19T14:56:44;24.10;65.10
40622;DHT22;26324;52.040;11.528;2022-08-19T14:59:10;23.90;65.80
40622;DHT22;26324;52.040;11.528;2022-08-19T15:01:36;23.90;66.40
40622;DHT22;26324;52.040;11.528;2022-08-19T15:04:02;23.80;66.60
40622;DHT22;26324;52.040;11.528;2022-08-19T15:06:28;23.80;66.80
40622;DHT22;26324;52.040;11.528;2022-08-19T15:08:55;23.70;66.90
40622;DHT22;26324;52.040;11.528;2022-08-19T15:11:24;23.80;66.60
40622;DHT22;26324;52.040;11.528;2022-08-19T15:13:54;23.80;66.90
40622;DHT22;26324;52.040;11.528;2022-08-19T15:16:21;23.80;66.80
40622;DHT22;26324;52.040;11.528;2022-08-19T15:18:49;23.70;66.60
40622;DHT22;26324;52.040;11.528;2022-08-19T15:21:17;23.80;66.70